Time;durP1;ratioP1;P1;durP2;ratioP2;P2;SDS_P1;SDS_P2;PMS_P1;PMS_P2;Temp;Humidity;BMP_temperature;BMP_pressure;BME280_temperature;BME280_humidity;BME280_pressure;Samples;Min_cycle;Max_cycle;Signal;HPM_P1;HPM_P2
2022/08/18 00:02:01;;;;;;;1.03;1.03;;;20.60;99.90;;;;;;5018685;28;20284;-60
2022/08/18 00:04:28;;;;;;;1.10;1.10;;;20.50;99.90;;;;;;5017419;28;20209;-60
2022/08/18 00:06:55;;;;;;;1.10;1.10;;;20.40;99.90;;;;;;5019087;28;20332;-59
2022/08/18 00:09:22;;;;;;;1.00;1.00;;;20.30;99.90;;;;;;5023434;28;20245;-60
2022/08/18 00:11:49;;;;;;;1.43;1.33;;;20.30;99.90;;;;;;5021059;28;20590;-59
2022/08/18 00:14:19;;;;;;;1.10;1.10;;;20.30;99.90;;;;;;5018976;28;20201;-60
2022/08/18 00:16:46;;;;;;;1.10;1.10;;;20.20;99.90;;;;;;5022341;28;20194;-61
2022/08/18 00:19:14;;;;;;;1.10;1.10;;;20.30;99.90;;;;;;5024710;28;20216;-59
2022/08/18 00:21:41;;;;;;;1.15;1.10;;;20.30;99.90;;;;;;5022539;28;20207;-60
2022/08/18 00:24:08;;;;;;;1.20;1.20;;;20.30;99.90;;;;;;5024820;28;20672;-59
2022/08/18 00:26:35;;;;;;;1.10;1.10;;;20.40;99.90;;;;;;5021606;28;20206;-60
2022/08/18 00:29:02;;;;;;;1.10;1.10;;;20.40;99.90;;;;;;5023098;28;20223;-61
2022/08/18 00:31:30;;;;;;;1.20;1.20;;;20.50;99.90;;;;;;5024831;28;20331;-61
2022/08/18 00:33:57;;;;;;;1.10;1.10;;;20.40;99.90;;;;;;5022190;28;20300;-60
2022/08/18 00:36:25;;;;;;;1.23;1.20;;;20.20;99.90;;;;;;5021415;28;20206;-61
2022/08/18 00:38:52;;;;;;;1.10;1.10;;;20.10;99.90;;;;;;5019783;28;20217;-60
2022/08/18 00:41:20;;;;;;;1.00;1.00;;;20.00;99.90;;;;;;5028735;28;20192;-61
2022/08/18 00:43:50;;;;;;;1.10;1.10;;;20.00;99.90;;;;;;5023301;28;20205;-60
2022/08/18 00:46:24;;;;;;;1.17;1.17;;;19.90;99.90;;;;;;5017157;28;20201;-60
2022/08/18 00:48:51;;;;;;;1.00;1.00;;;19.90;99.90;;;;;;5016619;28;20235;-60
2022/08/18 00:51:23;;;;;;;1.00;1.00;;;19.90;99.90;;;;;;5016887;28;20224;-60
2022/08/18 00:53:56;;;;;;;1.20;1.20;;;19.90;99.90;;;;;;5019401;28;20213;-60
2022/08/18 00:56:26;;;;;;;1.30;1.30;;;19.80;99.90;;;;;;5017639;28;20664;-61
2022/08/18 00:58:58;;;;;;;1.23;1.20;;;19.80;99.90;;;;;;5020683;28;20228;-60
2022/08/18 01:01:28;;;;;;;1.00;1.00;;;19.80;99.90;;;;;;5023944;28;20205;-60
2022/08/18 01:04:02;;;;;;;1.10;1.10;;;19.80;99.90;;;;;;5019366;28;20292;-60
2022/08/18 01:06:34;;;;;;;1.33;1.33;;;19.90;99.90;;;;;;5019081;28;20208;-64
2022/08/18 01:09:03;;;;;;;1.13;1.13;;;19.90;99.90;;;;;;5019192;28;20228;-61
2022/08/18 01:11:30;;;;;;;1.10;1.10;;;19.80;99.90;;;;;;5025646;28;20215;-61
2022/08/18 01:13:58;;;;;;;1.30;1.13;;;19.80;99.90;;;;;;5025308;28;20287;-61
2022/08/18 01:22:01;;;;;;;1.20;1.20;;;19.70;99.90;;;;;;5026868;28;20250;-60
2022/08/18 01:27:18;;;;;;;1.10;1.10;;;19.60;99.90;;;;;;5026888;28;20285;-60
2022/08/18 01:29:45;;;;;;;1.20;1.20;;;19.70;99.90;;;;;;5026594;28;20230;-61
2022/08/18 01:32:18;;;;;;;1.17;1.17;;;19.60;99.90;;;;;;5027209;28;20223;-61
2022/08/18 01:34:46;;;;;;;1.10;1.10;;;19.60;99.90;;;;;;5026246;28;20212;-60
2022/08/18 01:37:14;;;;;;;1.00;1.00;;;19.60;99.90;;;;;;5028977;28;20196;-60
2022/08/18 01:39:43;;;;;;;1.10;1.10;;;19.50;99.90;;;;;;5028583;28;20604;-60
2022/08/18 01:42:10;;;;;;;1.17;1.17;;;19.60;99.90;;;;;;5027393;28;20212;-59
2022/08/18 01:44:40;;;;;;;1.20;1.10;;;19.50;99.90;;;;;;5025952;28;20227;-60
2022/08/18 01:47:07;;;;;;;1.10;1.10;;;19.60;99.90;;;;;;5026861;28;20208;-60
2022/08/18 01:49:34;;;;;;;0.95;0.95;;;19.60;99.90;;;;;;5030905;28;20228;-61
2022/08/18 01:52:03;;;;;;;1.13;1.13;;;19.60;99.90;;;;;;5029357;28;20315;-61
2022/08/18 01:54:30;;;;;;;1.10;1.10;;;19.60;99.90;;;;;;5022295;28;20292;-61
2022/08/18 01:56:58;;;;;;;1.00;1.00;;;19.60;99.90;;;;;;5030169;28;20209;-61
2022/08/18 01:59:25;;;;;;;0.90;0.90;;;19.60;99.90;;;;;;5028649;28;20702;-61
2022/08/18 02:01:54;;;;;;;1.10;1.10;;;19.70;99.90;;;;;;5027666;28;20197;-61
2022/08/18 02:04:32;;;;;;;1.00;1.00;;;19.70;99.90;;;;;;5028667;28;20610;-60
2022/08/18 02:06:59;;;;;;;1.02;1.02;;;19.70;99.90;;;;;;5030354;28;20683;-60
2022/08/18 02:09:27;;;;;;;1.00;1.00;;;19.70;99.90;;;;;;5030567;28;20729;-61
2022/08/18 02:11:54;;;;;;;1.40;1.30;;;19.70;99.90;;;;;;5029603;28;20216;-61
2022/08/18 02:14:23;;;;;;;1.10;1.10;;;19.60;99.90;;;;;;5029390;28;20213;-61
2022/08/18 02:16:49;;;;;;;1.20;1.20;;;19.50;99.90;;;;;;5029960;28;20204;-61
2022/08/18 02:19:16;;;;;;;1.10;1.10;;;19.60;99.90;;;;;;5023889;28;20220;-61
2022/08/18 02:21:43;;;;;;;1.20;1.20;;;19.50;99.90;;;;;;5027618;28;20693;-60
2022/08/18 02:24:10;;;;;;;1.08;1.08;;;19.50;99.90;;;;;;5028454;28;20211;-60
2022/08/18 02:26:37;;;;;;;1.23;1.20;;;19.50;99.90;;;;;;5027166;28;20565;-61
2022/08/18 02:29:04;;;;;;;1.00;1.00;;;19.50;99.90;;;;;;5028657;28;20252;-59
2022/08/18 02:31:32;;;;;;;1.02;1.02;;;19.60;99.90;;;;;;5026568;28;20226;-59
2022/08/18 02:33:59;;;;;;;1.17;1.17;;;19.60;99.90;;;;;;5028299;28;20284;-60
2022/08/18 02:36:27;;;;;;;1.10;1.10;;;19.60;99.90;;;;;;5029755;28;20209;-59
2022/08/18 02:38:54;;;;;;;1.20;1.20;;;19.60;99.90;;;;;;5027552;28;20220;-59
2022/08/18 02:41:22;;;;;;;1.00;1.00;;;19.60;99.90;;;;;;5023341;28;20208;-59
2022/08/18 02:43:49;;;;;;;1.00;1.00;;;19.50;99.90;;;;;;5023426;28;20208;-59
2022/08/18 02:46:16;;;;;;;0.90;0.90;;;19.50;99.90;;;;;;5023195;28;20205;-60
2022/08/18 02:48:44;;;;;;;0.97;0.97;;;19.50;99.90;;;;;;5025590;28;20597;-59
2022/08/18 02:51:13;;;;;;;1.03;1.03;;;19.50;99.90;;;;;;5027427;28;21559;-59
2022/08/18 02:53:43;;;;;;;1.00;1.00;;;19.50;99.90;;;;;;5022654;28;20209;-60
2022/08/18 02:56:19;;;;;;;1.00;1.00;;;19.50;99.90;;;;;;5019146;28;20278;-60
2022/08/18 02:58:47;;;;;;;1.30;1.20;;;19.50;99.90;;;;;;5031863;28;20227;-61
2022/08/18 03:01:14;;;;;;;1.10;1.10;;;19.40;99.90;;;;;;5030639;28;20207;-60
2022/08/18 03:03:40;;;;;;;1.20;1.20;;;19.40;99.90;;;;;;5029113;28;20644;-59
2022/08/18 03:06:09;;;;;;;1.00;1.00;;;19.40;99.90;;;;;;5029014;28;20209;-59
2022/08/18 03:08:36;;;;;;;1.17;1.17;;;19.40;99.90;;;;;;5030336;28;20216;-59
2022/08/18 03:11:03;;;;;;;1.10;1.10;;;19.40;99.90;;;;;;5029934;28;20298;-59
2022/08/18 03:13:30;;;;;;;1.00;1.00;;;19.40;99.90;;;;;;5029332;28;20208;-59
2022/08/18 03:15:57;;;;;;;1.10;1.10;;;19.50;99.90;;;;;;5028699;28;20201;-60
2022/08/18 03:18:24;;;;;;;0.90;0.90;;;19.50;99.90;;;;;;5030100;28;20741;-60
2022/08/18 03:20:51;;;;;;;0.90;0.90;;;19.40;99.90;;;;;;5030991;28;20205;-60
2022/08/18 03:23:19;;;;;;;1.03;1.03;;;19.40;99.90;;;;;;5027720;28;20200;-61
2022/08/18 03:25:48;;;;;;;1.00;1.00;;;19.40;99.90;;;;;;5030361;28;20215;-60
2022/08/18 03:28:16;;;;;;;1.10;1.10;;;19.40;99.90;;;;;;5030520;28;20599;-61
2022/08/18 03:30:43;;;;;;;1.00;1.00;;;19.50;99.90;;;;;;5030895;28;20667;-61
2022/08/18 03:33:10;;;;;;;1.00;1.00;;;19.50;99.90;;;;;;5029790;28;20348;-61
2022/08/18 03:35:37;;;;;;;1.20;1.20;;;19.40;99.90;;;;;;5030849;28;20215;-60
2022/08/18 03:38:04;;;;;;;1.13;1.13;;;19.40;99.90;;;;;;5030869;28;20225;-60
2022/08/18 03:40:33;;;;;;;1.10;1.10;;;19.50;99.90;;;;;;5030614;28;20216;-61
2022/08/18 03:43:05;;;;;;;0.90;0.90;;;19.40;99.90;;;;;;5034353;28;20255;-61
2022/08/18 03:45:33;;;;;;;1.10;1.10;;;19.40;99.90;;;;;;5034688;28;20201;-61
2022/08/18 03:48:00;;;;;;;1.00;1.00;;;19.50;99.90;;;;;;5035097;28;20323;-61
2022/08/18 03:50:27;;;;;;;0.90;0.90;;;19.50;99.90;;;;;;5034780;28;20200;-60
2022/08/18 03:52:54;;;;;;;0.90;0.90;;;19.50;99.90;;;;;;5033004;28;20232;-61
2022/08/18 03:55:21;;;;;;;1.00;1.00;;;19.50;99.90;;;;;;5034575;28;20219;-61
2022/08/18 03:57:51;;;;;;;1.03;1.03;;;19.40;99.90;;;;;;5034504;28;20233;-61
2022/08/18 04:00:19;;;;;;;0.97;0.97;;;19.50;99.90;;;;;;5029284;28;20632;-61
2022/08/18 04:02:45;;;;;;;1.15;1.15;;;19.50;99.90;;;;;;5034582;28;20204;-60
2022/08/18 04:05:12;;;;;;;1.00;1.00;;;19.40;99.90;;;;;;5033474;28;20287;-60
2022/08/18 04:07:39;;;;;;;1.00;1.00;;;19.50;99.90;;;;;;5033873;28;20663;-61
2022/08/18 04:10:07;;;;;;;0.90;0.90;;;19.50;99.90;;;;;;5034428;28;20639;-61
2022/08/18 04:12:35;;;;;;;0.90;0.90;;;19.40;99.90;;;;;;5033378;28;20674;-61
2022/08/18 04:15:05;;;;;;;0.97;0.97;;;19.40;99.90;;;;;;5033732;28;20895;-61
2022/08/18 04:17:31;;;;;;;0.90;0.90;;;19.40;99.90;;;;;;5031089;28;20295;-60
2022/08/18 04:19:58;;;;;;;1.00;1.00;;;19.40;99.90;;;;;;5033669;28;20287;-60
2022/08/18 04:22:26;;;;;;;0.97;0.97;;;19.50;99.90;;;;;;5032492;28;20204;-60
2022/08/18 04:24:54;;;;;;;0.90;0.90;;;19.50;99.90;;;;;;5033827;28;20205;-61
2022/08/18 04:27:22;;;;;;;1.00;1.00;;;19.50;99.90;;;;;;5033625;28;20215;-61
2022/08/18 04:29:49;;;;;;;1.07;1.07;;;19.60;99.90;;;;;;5034238;28;20702;-59
2022/08/18 04:32:18;;;;;;;0.90;0.90;;;19.60;99.90;;;;;;5033707;28;20211;-59
2022/08/18 04:34:45;;;;;;;1.13;1.13;;;19.60;99.90;;;;;;5033289;28;20205;-61
2022/08/18 04:37:14;;;;;;;0.98;0.98;;;19.70;99.90;;;;;;5033489;28;20215;-61
2022/08/18 04:39:41;;;;;;;1.07;1.07;;;19.70;99.90;;;;;;5033567;28;20224;-61
2022/08/18 04:42:08;;;;;;;1.00;1.00;;;19.70;99.90;;;;;;5033794;28;20205;-61
2022/08/18 04:44:36;;;;;;;1.10;1.10;;;19.60;99.90;;;;;;5033156;28;20637;-61
2022/08/18 04:47:05;;;;;;;1.10;1.10;;;19.70;99.90;;;;;;5033166;28;20204;-61
2022/08/18 04:49:33;;;;;;;1.00;1.00;;;19.60;99.90;;;;;;5033568;28;20220;-61
2022/08/18 04:54:44;;;;;;;0.93;0.93;;;19.50;99.90;;;;;;5032610;28;20208;-60
2022/08/18 04:57:13;;;;;;;0.90;0.90;;;19.50;99.90;;;;;;5033097;28;20216;-61
2022/08/18 04:59:43;;;;;;;1.00;1.00;;;19.50;99.90;;;;;;5033216;28;20305;-61
2022/08/18 05:02:10;;;;;;;1.00;1.00;;;19.40;99.90;;;;;;5033731;28;20208;-61
2022/08/18 05:04:41;;;;;;;1.20;1.20;;;19.50;99.90;;;;;;5033105;28;20395;-61
2022/08/18 05:07:10;;;;;;;1.10;1.10;;;19.50;99.90;;;;;;5033142;28;20197;-61
2022/08/18 05:09:38;;;;;;;1.20;1.20;;;19.50;99.90;;;;;;5033465;28;20229;-61
2022/08/18 05:12:06;;;;;;;1.05;1.05;;;19.50;99.90;;;;;;5032089;28;20213;-61
2022/08/18 05:14:34;;;;;;;1.10;1.10;;;19.40;99.90;;;;;;5032459;28;20231;-61
2022/08/18 05:17:02;;;;;;;1.13;1.13;;;19.40;99.90;;;;;;5031356;28;20211;-61
2022/08/18 05:19:30;;;;;;;1.00;1.00;;;19.40;99.90;;;;;;5032263;28;20259;-61
2022/08/18 05:21:59;;;;;;;0.90;0.90;;;19.30;99.90;;;;;;5032866;28;20292;-61
2022/08/18 05:24:29;;;;;;;1.03;1.03;;;19.30;99.90;;;;;;5032071;28;20580;-61
2022/08/18 05:26:55;;;;;;;1.10;1.10;;;19.30;99.90;;;;;;5032808;28;20299;-61
2022/08/18 05:29:23;;;;;;;1.10;1.10;;;19.30;99.90;;;;;;5032298;28;20718;-61
2022/08/18 05:31:51;;;;;;;1.20;1.13;;;19.20;99.90;;;;;;5032085;28;20216;-61
2022/08/18 05:34:20;;;;;;;1.00;1.00;;;19.40;99.90;;;;;;5030386;28;20227;-62
2022/08/18 05:37:01;;;;;;;1.10;1.10;;;19.50;99.90;;;;;;5032363;28;20209;-60
2022/08/18 05:39:32;;;;;;;0.90;0.90;;;19.50;99.90;;;;;;5031335;28;20227;-60
2022/08/18 05:42:05;;;;;;;1.10;1.10;;;19.40;99.90;;;;;;5031129;28;20215;-59
2022/08/18 05:44:35;;;;;;;1.10;1.10;;;19.40;99.90;;;;;;5032191;28;20655;-60
2022/08/18 05:47:06;;;;;;;1.00;1.00;;;19.40;99.90;;;;;;5032760;28;20204;-60
2022/08/18 05:49:35;;;;;;;1.10;1.10;;;19.40;99.90;;;;;;5030323;28;20224;-60
2022/08/18 05:52:06;;;;;;;1.00;1.00;;;19.50;99.90;;;;;;5033581;28;20200;-60
2022/08/18 05:57:27;;;;;;;1.00;1.00;;;19.60;99.90;;;;;;5034855;28;20220;-60
2022/08/18 05:59:55;;;;;;;1.07;1.07;;;19.70;99.90;;;;;;5042609;28;20283;-60
2022/08/18 06:02:31;;;;;;;0.93;0.93;;;19.70;99.90;;;;;;5042184;28;20640;-59
2022/08/18 06:05:03;;;;;;;1.10;1.10;;;19.80;99.90;;;;;;5031456;28;20283;-60
2022/08/18 06:07:36;;;;;;;1.00;1.00;;;19.90;99.90;;;;;;5033776;28;20287;-60
2022/08/18 06:10:07;;;;;;;0.93;0.93;;;19.90;99.90;;;;;;5033341;28;20201;-61
2022/08/18 06:12:38;;;;;;;1.00;1.00;;;19.90;99.90;;;;;;5032905;28;20490;-61
2022/08/18 06:15:11;;;;;;;1.13;1.13;;;19.90;99.90;;;;;;5032110;28;20240;-60
2022/08/18 06:17:56;;;;;;;1.17;1.17;;;19.90;99.90;;;;;;5031667;28;20245;-60
2022/08/18 06:20:29;;;;;;;0.93;0.93;;;19.90;99.90;;;;;;5029522;28;20283;-62
2022/08/18 06:23:07;;;;;;;1.80;1.23;;;19.90;99.90;;;;;;5029266;28;20258;-61
2022/08/18 06:25:45;;;;;;;1.10;1.10;;;19.90;99.90;;;;;;5032129;28;20381;-59
2022/08/18 06:28:15;;;;;;;1.20;1.20;;;20.00;99.90;;;;;;5024447;28;20228;-61
2022/08/18 06:30:49;;;;;;;1.10;1.10;;;20.00;99.90;;;;;;5028757;28;20650;-61
2022/08/18 06:33:32;;;;;;;1.00;1.00;;;19.90;99.90;;;;;;5024477;28;20229;-59
2022/08/18 06:36:03;;;;;;;1.10;1.10;;;20.00;99.90;;;;;;5022366;28;20291;-60
2022/08/18 06:38:50;;;;;;;1.10;1.10;;;20.10;99.90;;;;;;5026526;28;20224;-60
2022/08/18 06:41:19;;;;;;;1.10;1.10;;;20.10;99.90;;;;;;5029738;28;20682;-61
2022/08/18 06:43:57;;;;;;;1.10;1.10;;;20.10;99.90;;;;;;5024562;28;20288;-61
2022/08/18 06:46:33;;;;;;;1.17;1.17;;;20.10;99.90;;;;;;5026292;28;20206;-61
2022/08/18 06:49:04;;;;;;;1.10;1.10;;;20.20;99.90;;;;;;5025878;28;20220;-61
2022/08/18 06:51:31;;;;;;;1.40;1.40;;;20.10;99.90;;;;;;5027198;28;20280;-61
2022/08/18 06:54:02;;;;;;;1.23;1.23;;;20.10;99.90;;;;;;5026134;28;20230;-61
2022/08/18 06:56:36;;;;;;;1.10;1.10;;;20.00;99.90;;;;;;5030486;28;20222;-60
2022/08/18 06:59:25;;;;;;;1.10;1.10;;;20.10;99.90;;;;;;5026521;28;20805;-61
2022/08/18 07:01:54;;;;;;;1.10;1.10;;;20.20;99.90;;;;;;5031623;28;20229;-59
2022/08/18 07:04:42;;;;;;;1.27;1.20;;;20.30;99.90;;;;;;5028243;28;20200;-61
2022/08/18 07:07:16;;;;;;;1.17;1.10;;;20.20;99.90;;;;;;5026715;28;20209;-59
2022/08/18 07:09:44;;;;;;;1.00;1.00;;;20.20;99.90;;;;;;5019688;28;20314;-59
2022/08/18 07:12:18;;;;;;;1.07;1.07;;;20.20;99.90;;;;;;5023326;28;20681;-59
2022/08/18 07:14:50;;;;;;;1.10;1.10;;;20.20;99.90;;;;;;5029942;28;20212;-60
2022/08/18 07:17:22;;;;;;;1.00;1.00;;;20.20;99.90;;;;;;5030225;28;20201;-59
2022/08/18 07:19:59;;;;;;;1.00;1.00;;;20.20;99.90;;;;;;5030544;28;20220;-60
2022/08/18 07:22:27;;;;;;;1.00;1.00;;;20.20;99.90;;;;;;5029409;28;20208;-59
2022/08/18 07:24:58;;;;;;;0.93;0.93;;;20.20;99.90;;;;;;5029843;28;20762;-61
2022/08/18 07:27:47;;;;;;;1.00;1.00;;;20.20;99.90;;;;;;5029995;28;20239;-62
2022/08/18 07:30:26;;;;;;;1.03;1.03;;;20.30;99.90;;;;;;5029614;28;20208;-65
2022/08/18 07:32:57;;;;;;;1.07;1.07;;;20.30;99.90;;;;;;5028191;28;20203;-61
2022/08/18 07:35:34;;;;;;;1.00;1.00;;;20.30;99.90;;;;;;5030298;28;20311;-62
2022/08/18 07:38:07;;;;;;;1.10;1.10;;;20.30;99.90;;;;;;5031546;28;20255;-60
2022/08/18 07:40:41;;;;;;;1.30;1.20;;;20.40;99.90;;;;;;5031927;28;20207;-60
2022/08/18 07:43:17;;;;;;;0.90;0.90;;;20.40;99.90;;;;;;5027168;28;20203;-60
2022/08/18 07:45:46;;;;;;;0.90;0.90;;;20.50;99.90;;;;;;5027714;28;20234;-61
2022/08/18 07:48:16;;;;;;;1.00;1.00;;;20.50;99.90;;;;;;5030403;28;20228;-61
2022/08/18 07:50:48;;;;;;;1.00;1.00;;;20.50;99.90;;;;;;5030496;28;20239;-60
2022/08/18 07:53:28;;;;;;;1.10;1.10;;;20.60;99.90;;;;;;5030439;28;20205;-60
2022/08/18 07:56:01;;;;;;;1.30;1.30;;;20.80;99.90;;;;;;5030208;28;20211;-60
2022/08/18 07:58:38;;;;;;;1.10;1.10;;;20.90;99.90;;;;;;5030459;28;20232;-60
2022/08/18 08:01:13;;;;;;;1.50;1.50;;;21.00;99.90;;;;;;5030194;28;20291;-60
2022/08/18 08:03:50;;;;;;;1.23;1.23;;;21.10;99.90;;;;;;5030723;28;20205;-60
2022/08/18 08:06:24;;;;;;;1.00;1.00;;;21.10;99.90;;;;;;5030590;28;20671;-60
2022/08/18 08:09:01;;;;;;;1.00;1.00;;;21.20;99.90;;;;;;5030626;28;20585;-61
2022/08/18 08:11:43;;;;;;;1.00;1.00;;;21.20;99.90;;;;;;5028127;28;20200;-60
2022/08/18 08:14:24;;;;;;;1.10;1.10;;;21.20;99.90;;;;;;5028300;28;20320;-61
2022/08/18 08:17:00;;;;;;;1.20;1.20;;;21.30;99.90;;;;;;5031005;28;20548;-64
2022/08/18 08:19:45;;;;;;;1.17;1.07;;;21.30;99.90;;;;;;5026082;28;20231;-60
2022/08/18 08:22:18;;;;;;;1.20;1.20;;;21.20;99.90;;;;;;5031790;28;20307;-60
2022/08/18 08:24:53;;;;;;;1.10;1.10;;;21.10;99.90;;;;;;5030889;28;20193;-61
2022/08/18 08:27:28;;;;;;;1.30;1.20;;;21.00;99.90;;;;;;5028658;28;20288;-60
2022/08/18 08:30:03;;;;;;;0.90;0.90;;;21.00;99.90;;;;;;5030533;28;20571;-61
2022/08/18 08:32:32;;;;;;;1.10;1.10;;;21.10;99.90;;;;;;5033298;28;20204;-61
2022/08/18 08:35:05;;;;;;;1.20;1.20;;;21.20;99.90;;;;;;5033607;28;20221;-61
2022/08/18 08:37:46;;;;;;;1.00;1.00;;;21.40;99.90;;;;;;5033986;28;20354;-61
2022/08/18 08:40:18;;;;;;;1.27;1.27;;;21.40;99.90;;;;;;5032994;28;20205;-61
2022/08/18 08:42:53;;;;;;;1.15;1.15;;;21.40;99.90;;;;;;5033882;28;20210;-60
2022/08/18 08:45:25;;;;;;;1.10;1.10;;;21.20;99.90;;;;;;5033884;28;20196;-63
2022/08/18 08:48:00;;;;;;;1.20;1.20;;;21.20;99.90;;;;;;5033511;28;20252;-59
2022/08/18 08:50:30;;;;;;;1.30;1.30;;;21.10;99.90;;;;;;5031582;28;20206;-62
2022/08/18 08:53:02;;;;;;;1.10;1.10;;;21.10;99.90;;;;;;5033489;28;20201;-62
2022/08/18 08:55:33;;;;;;;1.50;1.40;;;21.10;99.90;;;;;;5033961;28;20248;-61
2022/08/18 08:58:16;;;;;;;1.20;1.20;;;21.10;99.90;;;;;;5031262;28;20251;-61
2022/08/18 09:00:45;;;;;;;1.33;1.30;;;21.10;99.90;;;;;;5033420;28;20738;-61
2022/08/18 09:03:35;;;;;;;1.20;1.20;;;21.00;99.90;;;;;;5032690;28;20232;-61
2022/08/18 09:06:16;;;;;;;1.10;1.10;;;21.00;99.90;;;;;;5033585;28;20681;-62
2022/08/18 09:09:10;;;;;;;1.00;1.00;;;21.00;99.90;;;;;;5033716;28;20220;-61
2022/08/18 09:11:53;;;;;;;1.10;1.10;;;21.00;99.90;;;;;;5030610;28;20204;-63
2022/08/18 09:14:47;;;;;;;1.00;1.00;;;21.10;99.90;;;;;;5030195;28;20216;-62
2022/08/18 09:17:33;;;;;;;1.10;1.10;;;21.00;99.90;;;;;;5032701;28;20200;-60
2022/08/18 09:20:18;;;;;;;1.10;1.10;;;21.00;99.90;;;;;;5030687;28;20204;-59
2022/08/18 09:22:50;;;;;;;1.23;1.20;;;21.00;99.90;;;;;;5029384;28;20284;-60
2022/08/18 09:25:34;;;;;;;1.20;1.20;;;21.00;99.90;;;;;;5027535;28;20240;-60
2022/08/18 09:28:11;;;;;;;1.17;1.17;;;21.00;99.90;;;;;;5027732;28;20220;-59
2022/08/18 09:30:45;;;;;;;1.33;1.30;;;21.00;99.90;;;;;;5015024;28;20655;-60
2022/08/18 09:33:21;;;;;;;1.10;1.10;;;21.00;99.90;;;;;;5018491;28;20196;-60
2022/08/18 09:36:20;;;;;;;1.20;1.20;;;21.00;99.90;;;;;;5017980;28;20228;-59
2022/08/18 09:41:48;;;;;;;1.13;1.13;;;21.10;99.90;;;;;;5017142;28;20734;-60
2022/08/18 09:44:54;;;;;;;1.00;1.00;;;21.20;99.90;;;;;;5019256;28;20196;-62
2022/08/18 09:47:54;;;;;;;1.20;1.20;;;21.30;99.90;;;;;;5019773;28;20212;-60
2022/08/18 09:50:55;;;;;;;1.23;1.23;;;21.30;99.90;;;;;;5023855;28;20223;-61
2022/08/18 09:53:37;;;;;;;1.13;1.13;;;21.50;99.90;;;;;;5021597;28;20544;-61
2022/08/18 09:56:05;;;;;;;1.17;1.17;;;21.60;99.90;;;;;;5022397;28;20618;-61
2022/08/18 09:58:51;;;;;;;1.10;1.10;;;21.50;99.90;;;;;;5017176;28;20267;-62
2022/08/18 10:01:39;;;;;;;1.20;1.17;;;21.50;99.90;;;;;;5028439;28;20212;-59
2022/08/18 10:04:27;;;;;;;1.10;1.10;;;21.40;99.90;;;;;;5021171;28;20201;-62
2022/08/18 10:07:14;;;;;;;1.10;1.10;;;21.60;99.90;;;;;;5024487;28;20778;-60
2022/08/18 10:09:50;;;;;;;1.30;1.30;;;21.70;99.90;;;;;;5021532;28;20308;-61
2022/08/18 10:12:42;;;;;;;1.13;1.13;;;21.60;99.90;;;;;;5017956;28;20201;-60
2022/08/18 10:15:24;;;;;;;1.30;1.30;;;21.70;99.90;;;;;;5023003;28;20225;-60
2022/08/18 10:18:06;;;;;;;1.20;1.20;;;21.70;99.90;;;;;;5018393;28;20230;-61
2022/08/18 10:20:47;;;;;;;1.10;1.10;;;21.70;99.90;;;;;;5018589;28;20193;-61
2022/08/18 10:23:44;;;;;;;1.20;1.20;;;21.70;99.90;;;;;;5032665;28;20322;-62
2022/08/18 10:26:49;;;;;;;1.40;1.40;;;21.80;99.90;;;;;;5033614;28;20212;-60
2022/08/18 10:30:01;;;;;;;1.63;1.63;;;21.90;99.90;;;;;;4983778;28;20305;-61
2022/08/18 10:32:43;;;;;;;1.25;1.25;;;22.00;99.90;;;;;;5034771;28;20215;-61
2022/08/18 10:35:51;;;;;;;1.70;1.60;;;22.20;99.90;;;;;;5027502;28;20211;-59
2022/08/18 10:38:25;;;;;;;1.50;1.50;;;22.20;99.90;;;;;;5017909;28;20236;-59
2022/08/18 10:40:58;;;;;;;1.70;1.60;;;22.20;99.90;;;;;;5020643;28;20205;-61
2022/08/18 10:43:35;;;;;;;1.70;1.60;;;22.20;99.90;;;;;;5016549;28;20288;-60
2022/08/18 10:46:02;;;;;;;1.50;1.50;;;22.20;99.90;;;;;;5022471;28;20196;-60
2022/08/18 10:48:33;;;;;;;1.90;1.80;;;22.10;99.90;;;;;;5022817;28;20232;-59
2022/08/18 10:51:07;;;;;;;2.00;1.90;;;22.20;99.90;;;;;;5018818;28;21560;-60
2022/08/18 10:53:44;;;;;;;1.80;1.70;;;22.20;99.90;;;;;;5020453;28;20587;-60
2022/08/18 10:56:18;;;;;;;1.83;1.73;;;22.20;99.90;;;;;;5019468;28;20225;-60
2022/08/18 10:59:04;;;;;;;1.90;1.80;;;22.20;99.90;;;;;;5021293;28;20286;-59
2022/08/18 11:01:56;;;;;;;1.85;1.75;;;22.20;99.90;;;;;;5019888;28;20205;-59
2022/08/18 11:04:28;;;;;;;1.80;1.70;;;22.20;99.90;;;;;;5020260;28;20288;-59
2022/08/18 11:07:07;;;;;;;1.70;1.70;;;22.20;99.90;;;;;;5024474;28;20192;-62
2022/08/18 11:09:36;;;;;;;2.30;2.20;;;22.10;99.90;;;;;;5022440;28;20221;-62
2022/08/18 11:12:04;;;;;;;1.80;1.70;;;22.20;99.90;;;;;;5019891;28;20292;-61
2022/08/18 11:14:48;;;;;;;2.10;2.00;;;22.30;99.90;;;;;;5021437;28;20684;-61
2022/08/18 11:17:21;;;;;;;2.00;1.90;;;22.30;99.90;;;;;;5033433;28;20245;-61
2022/08/18 11:19:48;;;;;;;2.63;2.53;;;22.30;99.90;;;;;;5030717;28;20769;-61
2022/08/18 11:22:23;;;;;;;2.13;1.97;;;22.40;99.90;;;;;;5030824;28;20228;-61
2022/08/18 11:24:51;;;;;;;2.10;2.00;;;22.30;99.90;;;;;;5033889;28;20262;-61
2022/08/18 11:27:20;;;;;;;2.20;2.10;;;22.40;99.90;;;;;;5031633;28;20664;-61
2022/08/18 11:29:47;;;;;;;1.53;1.53;;;22.40;99.90;;;;;;5028696;28;20286;-61
2022/08/18 11:32:22;;;;;;;1.73;1.63;;;22.40;99.90;;;;;;5030494;28;20287;-62
2022/08/18 11:34:52;;;;;;;1.90;1.80;;;22.50;99.90;;;;;;5025446;28;20386;-61
2022/08/18 11:37:25;;;;;;;1.70;1.60;;;22.50;99.90;;;;;;5020739;28;20224;-61
2022/08/18 11:39:56;;;;;;;2.10;2.00;;;22.60;99.90;;;;;;5020609;28;20232;-61
2022/08/18 11:42:28;;;;;;;1.73;1.70;;;22.50;99.90;;;;;;5021773;28;20205;-62
2022/08/18 11:45:02;;;;;;;1.98;1.88;;;22.40;99.90;;;;;;5012900;28;20220;-61
2022/08/18 11:47:29;;;;;;;1.83;1.73;;;22.40;99.90;;;;;;5022308;28;20292;-59
2022/08/18 11:50:07;;;;;;;1.90;1.80;;;22.40;99.90;;;;;;5033031;28;20288;-60
2022/08/18 11:52:47;;;;;;;2.03;1.93;;;22.30;99.90;;;;;;5029934;28;20948;-60
2022/08/18 11:55:22;;;;;;;2.10;2.00;;;22.40;99.90;;;;;;5029766;28;20299;-59
2022/08/18 11:57:54;;;;;;;2.00;1.90;;;22.40;99.90;;;;;;5028624;28;20383;-60
2022/08/18 12:00:55;;;;;;;2.43;2.27;;;22.30;99.90;;;;;;5033783;28;20200;-59
2022/08/18 12:03:31;;;;;;;2.00;1.90;;;22.20;99.90;;;;;;5033023;28;20232;-60
2022/08/18 12:06:09;;;;;;;2.20;2.10;;;22.20;99.90;;;;;;5033336;28;20200;-60
2022/08/18 12:08:47;;;;;;;2.00;1.90;;;22.30;99.90;;;;;;5036864;28;20274;-60
2022/08/18 12:11:19;;;;;;;2.10;2.00;;;22.20;99.90;;;;;;5033722;28;20228;-60
2022/08/18 12:13:48;;;;;;;2.20;2.10;;;22.10;99.90;;;;;;5031774;28;20240;-60
2022/08/18 12:16:31;;;;;;;2.43;2.33;;;22.10;99.90;;;;;;5032161;28;20231;-60
2022/08/18 12:18:58;;;;;;;2.60;2.50;;;22.10;99.90;;;;;;5030418;28;20221;-60
2022/08/18 12:21:25;;;;;;;2.17;2.07;;;22.20;99.90;;;;;;5028903;28;20204;-60
2022/08/18 12:23:52;;;;;;;2.33;2.23;;;22.30;99.90;;;;;;5025943;28;20352;-59
2022/08/18 12:26:20;;;;;;;2.00;1.90;;;22.20;99.90;;;;;;5029057;28;20224;-60
2022/08/18 12:28:47;;;;;;;1.83;1.73;;;22.40;99.90;;;;;;5016998;28;20236;-59
2022/08/18 12:31:14;;;;;;;2.17;2.07;;;22.50;99.90;;;;;;5023754;28;20610;-60
2022/08/18 12:33:41;;;;;;;2.27;2.17;;;22.60;99.90;;;;;;5020673;28;20206;-60
2022/08/18 12:36:09;;;;;;;2.10;2.00;;;22.60;99.90;;;;;;5016302;28;20221;-60
2022/08/18 12:38:36;;;;;;;2.30;2.20;;;22.80;99.90;;;;;;5022923;28;20719;-61
2022/08/18 12:41:04;;;;;;;2.50;2.40;;;23.00;99.90;;;;;;5025824;28;20239;-62
2022/08/18 12:43:32;;;;;;;2.20;2.10;;;23.00;99.90;;;;;;5018813;28;20275;-60
2022/08/18 12:45:59;;;;;;;2.00;1.90;;;23.30;99.90;;;;;;5019206;28;20288;-60
2022/08/18 12:48:30;;;;;;;2.00;1.90;;;23.60;99.90;;;;;;5019099;28;20236;-60
2022/08/18 12:50:57;;;;;;;1.73;1.63;;;23.90;99.90;;;;;;5019516;28;20201;-61
2022/08/18 12:53:25;;;;;;;1.98;1.88;;;24.30;99.90;;;;;;5016698;28;20209;-60
2022/08/18 12:55:51;;;;;;;2.30;2.20;;;24.60;99.90;;;;;;5019261;28;20225;-61
2022/08/18 12:58:18;;;;;;;2.00;1.90;;;24.70;99.90;;;;;;5019310;28;20238;-60
2022/08/18 13:00:47;;;;;;;2.30;2.20;;;24.70;99.90;;;;;;5024752;28;20204;-60
2022/08/18 13:03:14;;;;;;;2.00;1.90;;;24.80;99.90;;;;;;5031037;28;20200;-60
2022/08/18 13:05:41;;;;;;;2.00;1.90;;;24.80;99.90;;;;;;5024467;28;20202;-60
2022/08/18 13:08:16;;;;;;;2.22;2.13;;;25.00;99.90;;;;;;5026621;28;20229;-61
2022/08/18 13:10:43;;;;;;;2.08;1.98;;;25.20;99.90;;;;;;5028656;28;20196;-60
2022/08/18 13:13:10;;;;;;;1.80;1.77;;;25.20;99.90;;;;;;5030022;28;20286;-60
2022/08/18 13:15:37;;;;;;;2.20;2.10;;;25.20;99.90;;;;;;5026046;28;20239;-61
2022/08/18 13:18:07;;;;;;;2.20;2.10;;;25.20;99.90;;;;;;5023956;28;20228;-63
2022/08/18 13:20:35;;;;;;;2.28;2.17;;;24.90;99.90;;;;;;5022905;28;20212;-59
2022/08/18 13:23:02;;;;;;;2.35;2.25;;;24.60;99.90;;;;;;5025107;28;20702;-60
2022/08/18 13:25:29;;;;;;;2.17;2.08;;;24.80;99.90;;;;;;5025920;28;20667;-60
2022/08/18 13:27:56;;;;;;;2.10;2.00;;;25.00;99.90;;;;;;5028098;28;20225;-60
2022/08/18 13:30:24;;;;;;;2.20;2.10;;;25.20;99.90;;;;;;5026677;28;20259;-61
2022/08/18 13:32:51;;;;;;;2.03;1.92;;;25.20;99.90;;;;;;5026939;28;20213;-60